Flight Track Log - Related Links

Times and Time Zones

All times are in EDT time to prevent confusion due to time zone crossing. See the ASQ5958 flight status page for this flight to view local times or setup timezone preferences in your user account.

Time Position Orientation Groundspeed Altitude Reporting Facility
EDT Latitude Longitude Course Direction KTS MPH feet Rate Location/Type
Wed 12:46:30 PM 43.1089 -76.0892 78° East 137 158 1,200  Level Boston Center
Wed 12:47:13 PM 43.1169 -76.0386 78° East 197 227 2,700 2,680 Climbing Boston Center
Wed 12:48:13 PM 43.1747 -76.0533 349° North 255 293 5,800 2,724 Climbing Boston Center
Wed 12:49:45 PM 43.1736 -76.2044 269° West 263 303 9,600 2,211 Climbing Cleveland Center
Wed 12:50:45 PM 43.1653 -76.3217 264° West 286 329 11,400 1,750 Climbing Cleveland Center
Wed 12:51:45 PM 43.1639 -76.4528 269° West 326 375 13,100 1,750 Climbing Cleveland Center
Wed 12:52:45 PM 43.1667 -76.5922 272° West 355 409 14,900 1,700 Climbing Cleveland Center
Wed 12:53:45 PM 43.1647 -76.7203 269° West 373 429 16,500 1,450 Climbing Cleveland Center
Wed 12:54:45 PM 43.1656 -76.8683 270° West 386 444 17,800 1,400 Climbing Cleveland Center
Wed 12:55:45 PM 43.1661 -77.0164 270° West 386 444 19,300 1,500 Climbing Cleveland Center
Wed 12:56:45 PM 43.1664 -77.1675 270° West 391 450 20,800 1,500 Climbing Cleveland Center
Wed 12:57:45 PM 43.1647 -77.3239 269° West 406 467 22,300 1,550 Climbing Cleveland Center
Wed 12:58:45 PM 43.1647 -77.4778 270° West 411 473 23,900 1,550 Climbing Cleveland Center
Wed 12:59:45 PM 43.1647 -77.6344 270° West 411 473 25,400 1,500 Climbing Cleveland Center
Wed 01:00:45 PM 43.1622 -77.7911 269° West 411 473 26,900 1,500 Climbing Cleveland Center
Wed 01:01:45 PM 43.1617 -77.9419 270° West 411 473 28,400 1,500 Climbing Cleveland Center
Wed 01:02:45 PM 43.1608 -78.0956 270° West 406 467 29,900 1,650 Climbing Cleveland Center
Wed 01:03:45 PM 43.1603 -78.2636 270° West 406 467 31,700 1,600 Climbing Cleveland Center
Wed 01:04:45 PM 43.1567 -78.4117 268° West 406 467 33,100 1,350 Climbing Cleveland Center
Wed 01:05:45 PM 43.1575 -78.5625 270° West 406 467 34,400 1,300 Climbing Cleveland Center
Wed 01:06:45 PM 43.1536 -78.7108 268° West 401 461 35,700 800 Climbing Cleveland Center
Wed 01:07:45 PM 43.1539 -78.8617 270° West 401 461 36,000 150 Climbing Cleveland Center
Wed 01:08:45 PM 43.1333 -79.0000 259° West 410 472 36,000  Level Toronto Center
Wed 01:09:45 PM 43.1333 -79.1833 270° West 440 506 36,000  Level Toronto Center
Wed 01:10:45 PM 43.1333 -79.3333 270° West 450 518 36,000  Level Toronto Center
Wed 01:11:45 PM 43.1333 -79.5167 270° West 450 518 36,000  Level Toronto Center
Wed 01:12:45 PM 43.1167 -79.6833 262° West 440 506 36,000  Level Toronto Center
Wed 01:13:45 PM 43.1167 -79.8333 270° West 440 506 36,000  Level Toronto Center
Wed 01:14:45 PM 43.1167 -80.0167 270° West 440 506 36,000  Level Toronto Center
Wed 01:15:45 PM 43.1167 -80.1833 270° West 450 518 36,000  Level Toronto Center
Wed 01:16:45 PM 43.1167 -80.3667 270° West 450 518 36,000  Level Toronto Center
Wed 01:17:45 PM 43.1000 -80.5167 261° West 460 529 36,000  Level Toronto Center
Wed 01:18:45 PM 43.1000 -80.7000 270° West 450 518 36,000  Level Toronto Center
Wed 01:19:45 PM 43.0833 -80.8833 263° West 450 518 36,000  Level Toronto Center
Wed 01:20:45 PM 43.0833 -81.0500 270° West 450 518 36,000  Level Toronto Center
Wed 01:21:45 PM 43.0667 -81.2333 263° West 450 518 36,000  Level Toronto Center
Wed 01:22:45 PM 43.0667 -81.3833 270° West 450 518 36,000  Level Toronto Center
Wed 01:23:45 PM 43.0667 -81.5667 270° West 450 518 36,000  Level Toronto Center
Wed 01:24:45 PM 43.0667 -81.7333 270° West 450 518 36,000  Level Toronto Center
Wed 01:25:45 PM 43.0333 -81.9167 256° West 450 518 36,000  Level Toronto Center
Wed 01:26:45 PM 43.0333 -82.0667 270° West 450 518 36,000  Level Toronto Center
Wed 01:27:45 PM 43.0333 -82.2333 270° West 450 518 36,000  Level Toronto Center
Wed 01:28:45 PM 43.0333 -82.4167 270° West 450 518 36,000  Level Toronto Center
Wed 01:29:45 PM 43.0167 -82.5667 261° West 450 518 36,000  Level Toronto Center
Wed 01:30:22 PM 43.0247 -82.6819 275° West 458 527 36,000  Level Cleveland Center
Wed 01:31:22 PM 43.0153 -82.8519 266° West 458 527 36,000  Level Cleveland Center
Wed 01:32:22 PM 43.0075 -83.0247 267° West 458 527 36,000  Level Cleveland Center
Wed 01:33:22 PM 42.9975 -83.1919 265° West 458 527 36,000  Level Cleveland Center
Wed 01:34:22 PM 42.9894 -83.3647 266° West 458 527 36,000  Level Cleveland Center
Wed 01:35:22 PM 42.9789 -83.5317 265° West 458 527 36,000  Level Cleveland Center
Wed 01:36:22 PM 42.9681 -83.7044 265° West 458 527 36,000  Level Cleveland Center
Wed 01:37:22 PM 42.9550 -83.8739 264° West 458 527 36,000  Level Cleveland Center
Wed 01:38:22 PM 42.9378 -84.0403 262° West 458 527 36,000 -300 Level Cleveland Center
Wed 01:39:22 PM 42.9194 -84.2267 262° West 464 534 35,400 -908 Descending Cleveland Center
Wed 01:40:21 PM 42.9044 -84.3731 262° West 448 516 34,200 -1,500 Descending Cleveland Center
Wed 01:40:46 PM 42.8983 -84.4378 263° West 438 504 33,300 -1,517 Descending Chicago Center
Wed 01:41:48 PM 42.8822 -84.5953 262° West 424 488 32,000 -629 Descending Chicago Center
Wed 01:42:50 PM 42.8664 -84.7447 262° West 407 468 32,000  Level Chicago Center
Wed 01:43:52 PM 42.8469 -84.9342 262° West 417 480 32,000  Level Chicago Center
Wed 01:44:54 PM 42.8294 -85.0989 262° West 433 498 32,000  Level Chicago Center
Wed 01:45:56 PM 42.8119 -85.2678 262° West 445 512 32,000  Level Chicago Center
Wed 01:46:58 PM 42.7931 -85.4372 261° West 450 518 32,000 -1,161 Level Chicago Center
Wed 01:48:00 PM 42.7672 -85.6058 258° West 455 524 29,600 -2,516 Descending Chicago Center
Wed 01:49:02 PM 42.7372 -85.7725 256° West 451 519 26,800 -2,661 Descending Chicago Center
Wed 01:50:04 PM 42.7072 -85.9358 256° West 444 511 24,100 -2,323 Descending Chicago Center
Wed 01:51:06 PM 42.6767 -86.1033 256° West 450 518 22,000 -1,984 Descending Chicago Center
Wed 01:52:08 PM 42.6414 -86.2989 256° West 444 511 20,000 -1,355 Descending Chicago Center
Wed 01:53:10 PM 42.6131 -86.4456 255° West 407 468 19,200 -1,258 Descending Chicago Center
Wed 01:54:12 PM 42.5847 -86.5944 256° West 408 470 17,400 -1,707 Descending Chicago Center
Wed 01:55:13 PM 42.5586 -86.7364 256° West 393 452 15,700 -1,659 Descending Chicago Center
Wed 01:56:15 PM 42.5217 -86.8681 249° West 376 433 14,000 -1,597 Descending Chicago Center
Wed 01:57:17 PM 42.4881 -86.9958 250° West 365 420 12,400 -1,597 Descending Chicago Center
Wed 01:58:19 PM 42.4525 -87.1200 249° West 357 411 10,700 -1,355 Descending Chicago Center
Wed 01:59:21 PM 42.4183 -87.2472 250° West 294 338 9,600 -823 Descending Chicago Center
Wed 02:00:23 PM 42.3586 -87.2786 201° Southwest 247 284 9,000 -484 Descending Chicago Center
Wed 02:01:25 PM 42.2867 -87.2806 181° South 246 283 8,600 -726 Descending Chicago Center
Wed 02:02:27 PM 42.2175 -87.2711 174° South 250 288 7,500 -823 Descending Chicago Center
Wed 02:03:29 PM 42.1464 -87.2669 178° South 255 293 6,900 -290 Descending Chicago Center
Wed 02:04:31 PM 42.0764 -87.2625 177° South 253 291 6,900 -98 Level Chicago Center
Wed 02:05:32 PM 42.0408 -87.3508 242° Southwest 273 314 6,700 -393 Descending Chicago Center
Wed 02:06:18 PM 42.0000 -87.4333 236° Southwest 257 296 6,200 -396 Descending Chicago TRACON
Wed 02:07:18 PM 41.9833 -87.5167 255° West 249 287 6,000 -500 Descending Chicago TRACON
Wed 02:08:18 PM 41.9833 -87.6000 270° West 245 282 5,200 -1,263 Descending Chicago TRACON
Wed 02:09:12 PM 41.9833 -87.6833 270° West 230 265 3,600 -1,474 Descending Chicago TRACON
Wed 02:10:12 PM 41.9833 -87.7667 270° West 221 254 2,400 -1,091 Descending Chicago TRACON
Wed 02:11:13 PM 41.9833 -87.8333 270° West 170 196 1,400 -984 Descending Chicago TRACON
Wed 02:13:00 PM 41.9667 -87.9000 263° West  Level FlightAware Approximate
Wed 02:20:00 PM 41.9817 -87.9067 263° West  Level Estimated

Login

Don't have an account? Register now (free) for customized features, flight alerts, and more!